Time;durP1;ratioP1;P1;durP2;ratioP2;P2;SDS_P1;SDS_P2;PMS_P1;PMS_P2;Temp;Humidity;BMP_temperature;BMP_pressure;BME280_temperature;BME280_humidity;BME280_pressure;Samples;Min_cycle;Max_cycle;Signal;HPM_P1;HPM_P2
2023/07/20 00:01:06;;;;;;;5.07;2.50;;;15.70;99.90;;;;;;5111625;28;20040;-77
2023/07/20 00:03:32;;;;;;;3.45;2.20;;;15.60;99.90;;;;;;5110813;28;20177;-80
2023/07/20 00:05:58;;;;;;;6.53;2.78;;;15.70;99.90;;;;;;5107463;28;20052;-78
2023/07/20 00:08:23;;;;;;;3.35;2.22;;;15.60;99.90;;;;;;5114035;28;20048;-79
2023/07/20 00:10:49;;;;;;;4.78;2.35;;;15.70;99.90;;;;;;5100647;28;20039;-79
2023/07/20 00:13:15;;;;;;;5.28;2.25;;;15.70;99.90;;;;;;5100432;28;20108;-79
2023/07/20 00:15:42;;;;;;;5.32;2.80;;;15.70;99.90;;;;;;5114348;28;20087;-78
2023/07/20 00:18:09;;;;;;;4.40;2.67;;;15.60;99.90;;;;;;5099400;28;20096;-79
2023/07/20 00:20:34;;;;;;;5.32;2.78;;;15.60;99.90;;;;;;5114643;28;20100;-78
2023/07/20 00:23:00;;;;;;;7.05;2.90;;;15.60;99.90;;;;;;5099142;28;20039;-79
2023/07/20 00:25:25;;;;;;;4.68;2.80;;;15.70;99.90;;;;;;5094756;28;20046;-78
2023/07/20 00:27:51;;;;;;;7.13;3.03;;;15.60;99.90;;;;;;5090731;28;20027;-78
2023/07/20 00:30:18;;;;;;;4.50;2.60;;;15.60;99.90;;;;;;5118938;28;20053;-78
2023/07/20 00:32:44;;;;;;;3.25;2.50;;;15.50;99.90;;;;;;5114791;28;20099;-79
2023/07/20 00:35:11;;;;;;;4.20;2.50;;;15.60;99.90;;;;;;5106815;28;20095;-77
2023/07/20 00:37:37;;;;;;;3.08;2.35;;;15.50;99.90;;;;;;5113176;28;20443;-78
2023/07/20 00:40:07;;;;;;;5.00;2.70;;;15.50;99.90;;;;;;5112182;28;20048;-79
2023/07/20 00:42:33;;;;;;;7.93;2.58;;;15.40;99.90;;;;;;5116852;28;20047;-78
2023/07/20 00:44:59;;;;;;;4.07;2.70;;;15.50;99.90;;;;;;5116004;28;20408;-77
2023/07/20 00:47:25;;;;;;;5.45;2.95;;;15.40;99.90;;;;;;5082278;28;20043;-79
2023/07/20 00:49:51;;;;;;;4.78;3.00;;;15.40;99.90;;;;;;5114631;28;20032;-78
2023/07/20 00:52:20;;;;;;;4.38;2.80;;;15.40;99.90;;;;;;5117853;28;20093;-78
2023/07/20 00:54:47;;;;;;;4.38;2.58;;;15.30;99.90;;;;;;5113485;28;20036;-78
2023/07/20 00:57:15;;;;;;;7.13;3.05;;;15.30;99.90;;;;;;5100086;28;20092;-79
2023/07/20 00:59:41;;;;;;;5.07;2.60;;;15.30;99.90;;;;;;5118259;28;20425;-78
2023/07/20 01:02:07;;;;;;;4.55;2.70;;;15.20;99.90;;;;;;5107523;28;20103;-78
2023/07/20 01:04:34;;;;;;;4.90;2.35;;;15.20;99.90;;;;;;5114435;28;20067;-77
2023/07/20 01:07:32;;;;;;;3.30;2.40;;;15.10;99.90;;;;;;5094564;28;20093;-77
2023/07/20 01:10:04;;;;;;;4.70;2.70;;;15.10;99.90;;;;;;5116227;28;20124;-79
2023/07/20 01:12:39;;;;;;;3.15;2.35;;;15.00;99.90;;;;;;5099226;28;20040;-79
2023/07/20 01:15:08;;;;;;;4.35;2.40;;;15.00;99.90;;;;;;5118052;28;20047;-79
2023/07/20 01:17:34;;;;;;;5.18;2.90;;;14.90;99.90;;;;;;5111386;28;20031;-78
2023/07/20 01:20:00;;;;;;;4.35;2.70;;;14.90;99.90;;;;;;5119913;28;20043;-79
2023/07/20 01:23:01;;;;;;;3.17;2.30;;;14.90;99.90;;;;;;5112981;28;20504;-78
2023/07/20 01:25:55;;;;;;;3.53;2.40;;;14.80;99.90;;;;;;5113207;28;20075;-77
2023/07/20 01:28:35;;;;;;;5.78;2.67;;;14.80;99.90;;;;;;5114065;28;20048;-79
2023/07/20 01:31:27;;;;;;;4.45;2.35;;;14.80;99.90;;;;;;5106209;28;20063;-78
2023/07/20 01:33:56;;;;;;;3.03;2.50;;;14.70;99.90;;;;;;5112006;28;20050;-81
2023/07/20 01:36:27;;;;;;;6.85;2.30;;;14.70;99.90;;;;;;5114892;28;20390;-79
2023/07/20 01:38:53;;;;;;;4.22;2.88;;;14.70;99.90;;;;;;5093102;28;20044;-78
2023/07/20 01:41:19;;;;;;;4.50;2.58;;;14.70;99.90;;;;;;5111263;28;20054;-78
2023/07/20 01:43:44;;;;;;;3.95;2.58;;;14.60;99.90;;;;;;5118336;28;20055;-78
2023/07/20 01:46:10;;;;;;;4.20;2.75;;;14.60;99.90;;;;;;5097266;28;20553;-78
2023/07/20 01:48:36;;;;;;;6.05;2.60;;;14.50;99.90;;;;;;5120703;28;20036;-78
2023/07/20 01:51:01;;;;;;;3.33;2.40;;;14.60;99.90;;;;;;5094415;28;20074;-77
2023/07/20 01:53:27;;;;;;;4.97;2.60;;;14.50;99.90;;;;;;5111868;28;20438;-79
2023/07/20 01:55:57;;;;;;;4.97;2.95;;;14.50;99.90;;;;;;5120490;28;20048;-78
2023/07/20 01:58:23;;;;;;;4.28;2.70;;;14.40;99.90;;;;;;5116730;28;20043;-78
2023/07/20 02:00:49;;;;;;;7.47;3.17;;;14.40;99.90;;;;;;5115691;28;20047;-78
2023/07/20 02:03:14;;;;;;;4.32;2.50;;;14.40;99.90;;;;;;5089043;28;20396;-78
2023/07/20 02:05:42;;;;;;;4.70;2.60;;;14.30;99.90;;;;;;5113853;28;20392;-78
2023/07/20 02:08:08;;;;;;;;;;;14.30;99.90;;;;;;5106771;28;20615;-77
2023/07/20 02:10:34;;;;;;;4.22;2.72;;;14.20;99.90;;;;;;5116221;28;20035;-78
2023/07/20 02:12:59;;;;;;;4.78;2.08;;;14.20;99.90;;;;;;5111846;28;20050;-78
2023/07/20 02:15:25;;;;;;;8.68;2.90;;;14.20;99.90;;;;;;5108940;28;20627;-78
2023/07/20 02:17:51;;;;;;;5.88;2.00;;;14.10;99.90;;;;;;5105213;28;20435;-78
2023/07/20 02:20:17;;;;;;;3.72;2.05;;;14.20;99.90;;;;;;5094328;28;20043;-78
2023/07/20 02:22:43;;;;;;;4.82;2.00;;;14.20;99.90;;;;;;5109912;28;20043;-78
2023/07/20 02:25:09;;;;;;;4.30;1.90;;;14.10;99.90;;;;;;5112993;28;20397;-78
2023/07/20 02:27:35;;;;;;;5.40;1.90;;;14.10;99.90;;;;;;5092211;28;20032;-78
2023/07/20 02:30:01;;;;;;;3.67;1.85;;;14.10;99.90;;;;;;5112787;28;20061;-77
2023/07/20 02:32:28;;;;;;;5.95;2.00;;;14.10;99.90;;;;;;5079883;28;20043;-79
2023/07/20 02:34:53;;;;;;;4.07;2.30;;;14.10;99.90;;;;;;5089839;28;20081;-77
2023/07/20 02:37:19;;;;;;;6.30;2.10;;;14.00;99.90;;;;;;5111784;28;20044;-78
2023/07/20 02:39:45;;;;;;;2.42;1.77;;;14.00;99.90;;;;;;5115478;28;20077;-79
2023/07/20 02:42:10;;;;;;;5.65;2.08;;;14.00;99.90;;;;;;5110266;28;20093;-78
2023/07/20 02:44:36;;;;;;;4.80;2.70;;;14.00;99.90;;;;;;5112972;28;20048;-77
2023/07/20 02:47:02;;;;;;;2.95;2.00;;;13.90;99.90;;;;;;5094237;28;20051;-76
2023/07/20 02:49:28;;;;;;;4.43;2.17;;;13.90;99.90;;;;;;5113518;28;20031;-78
2023/07/20 02:51:54;;;;;;;4.65;2.17;;;13.90;99.90;;;;;;5079368;28;20554;-78
2023/07/20 02:54:22;;;;;;;2.90;2.10;;;13.80;99.90;;;;;;5113825;28;20559;-78
2023/07/20 02:56:48;;;;;;;5.88;2.42;;;13.80;99.90;;;;;;5111570;28;20036;-78
2023/07/20 02:59:14;;;;;;;3.42;1.77;;;13.80;99.90;;;;;;5092467;28;20047;-77
2023/07/20 03:01:42;;;;;;;5.07;2.00;;;13.80;99.90;;;;;;5113645;28;20124;-77
2023/07/20 03:04:09;;;;;;;5.15;2.17;;;13.70;99.90;;;;;;5114364;28;20040;-77
2023/07/20 03:06:36;;;;;;;4.35;2.28;;;13.70;99.90;;;;;;5115853;28;20062;-77
2023/07/20 03:09:03;;;;;;;5.40;2.33;;;13.60;99.90;;;;;;5114608;28;20051;-78
2023/07/20 03:11:29;;;;;;;6.47;2.25;;;13.60;99.90;;;;;;5095597;28;20049;-77
2023/07/20 03:13:54;;;;;;;4.90;1.98;;;13.60;99.90;;;;;;5116437;28;20027;-78
2023/07/20 03:16:21;;;;;;;3.25;2.13;;;13.50;99.90;;;;;;5107873;28;20036;-77
2023/07/20 03:18:47;;;;;;;3.28;2.30;;;13.50;99.90;;;;;;5111699;28;20418;-77
2023/07/20 03:21:13;;;;;;;4.05;2.58;;;13.50;99.90;;;;;;5114615;28;20054;-76
2023/07/20 03:23:40;;;;;;;3.08;2.60;;;13.50;99.90;;;;;;5111743;28;20501;-78
2023/07/20 03:26:08;;;;;;;6.95;2.63;;;13.40;99.90;;;;;;5111145;28;20122;-78
2023/07/20 03:28:37;;;;;;;12.13;3.28;;;13.40;99.90;;;;;;5104571;28;20055;-77
2023/07/20 03:31:03;;;;;;;5.18;3.40;;;13.40;99.90;;;;;;5112763;28;20446;-78
2023/07/20 03:33:30;;;;;;;4.93;3.60;;;13.40;99.90;;;;;;5113973;28;20128;-77
2023/07/20 03:35:57;;;;;;;8.05;3.15;;;13.40;99.90;;;;;;5112524;28;20402;-78
2023/07/20 03:38:23;;;;;;;4.53;3.30;;;13.40;99.90;;;;;;5087954;28;20047;-76
2023/07/20 03:40:50;;;;;;;5.78;3.00;;;13.40;99.90;;;;;;5096319;28;20083;-78
2023/07/20 03:43:16;;;;;;;3.70;3.10;;;13.40;99.90;;;;;;5110376;28;20036;-79
2023/07/20 03:45:41;;;;;;;5.20;3.25;;;13.40;99.90;;;;;;5101449;28;20051;-78
2023/07/20 03:48:07;;;;;;;4.40;3.20;;;13.40;99.90;;;;;;5113376;28;20050;-79
2023/07/20 03:50:33;;;;;;;5.93;3.50;;;13.40;99.90;;;;;;5101854;28;20050;-76
2023/07/20 03:52:59;;;;;;;5.60;3.00;;;13.40;99.90;;;;;;5095338;28;20575;-76
2023/07/20 03:55:24;;;;;;;5.80;3.30;;;13.40;99.90;;;;;;5112400;27;20369;-76
2023/07/20 03:57:50;;;;;;;4.32;3.10;;;13.40;99.90;;;;;;5093068;28;20508;-78
2023/07/20 04:00:17;;;;;;;4.82;3.10;;;13.40;99.90;;;;;;5117796;28;20031;-77
2023/07/20 04:02:43;;;;;;;5.25;3.42;;;13.30;99.90;;;;;;5116589;28;20537;-78
2023/07/20 04:05:08;;;;;;;6.93;3.33;;;13.40;99.90;;;;;;5113654;28;20080;-77
2023/07/20 04:07:34;;;;;;;9.18;2.83;;;13.40;99.90;;;;;;5119665;28;20469;-77
2023/07/20 04:10:00;;;;;;;3.67;2.88;;;13.30;99.90;;;;;;5119216;28;20366;-77
2023/07/20 04:12:25;;;;;;;3.78;2.78;;;13.70;99.90;;;;;;5118767;28;20035;-78
2023/07/20 04:14:51;;;;;;;6.30;2.70;;;13.40;99.90;;;;;;5120292;28;20036;-78
2023/07/20 04:17:18;;;;;;;6.25;3.42;;;13.40;99.90;;;;;;5104201;28;20028;-77
2023/07/20 04:19:44;;;;;;;5.30;3.10;;;13.40;99.90;;;;;;5116081;28;20061;-77
2023/07/20 04:22:10;;;;;;;5.90;2.95;;;13.30;99.90;;;;;;5113493;28;20294;-78
2023/07/20 04:24:35;;;;;;;6.43;3.13;;;13.50;99.90;;;;;;5111206;28;20091;-78
2023/07/20 04:27:01;;;;;;;4.18;2.65;;;13.50;99.90;;;;;;5101953;28;20077;-78
2023/07/20 04:29:27;;;;;;;4.07;2.50;;;13.50;99.90;;;;;;5095844;28;20054;-77
2023/07/20 04:31:52;;;;;;;5.82;2.40;;;13.60;99.90;;;;;;5100729;28;20071;-75
2023/07/20 04:34:18;;;;;;;9.13;2.42;;;13.60;99.90;;;;;;5123102;28;20031;-79
2023/07/20 04:36:44;;;;;;;3.05;2.42;;;13.70;99.90;;;;;;5122126;28;20115;-79
2023/07/20 04:39:10;;;;;;;5.20;2.65;;;13.70;99.90;;;;;;5093880;28;20432;-77
2023/07/20 04:41:35;;;;;;;5.13;2.67;;;13.70;99.90;;;;;;5115733;28;20042;-78
2023/07/20 04:44:01;;;;;;;5.15;2.22;;;13.70;99.90;;;;;;5114969;28;20074;-78
2023/07/20 04:46:27;;;;;;;4.80;2.20;;;13.70;99.90;;;;;;5092309;28;20050;-78
2023/07/20 04:48:53;;;;;;;4.00;2.50;;;13.70;99.90;;;;;;5114569;28;20047;-79
2023/07/20 04:51:20;;;;;;;5.03;2.42;;;13.80;99.90;;;;;;5097253;28;20043;-78
2023/07/20 04:53:48;;;;;;;3.58;2.40;;;13.70;99.90;;;;;;5108992;28;20039;-79
2023/07/20 04:56:14;;;;;;;;;;;13.90;99.90;;;;;;5114627;28;20217;-79
2023/07/20 04:58:40;;;;;;;5.30;2.33;;;13.90;99.90;;;;;;5116702;28;20384;-80
2023/07/20 05:01:05;;;;;;;5.25;2.13;;;14.00;99.90;;;;;;5110616;28;20043;-78
2023/07/20 05:03:31;;;;;;;6.13;2.58;;;14.10;99.90;;;;;;5096711;28;20513;-78
2023/07/20 05:05:57;;;;;;;3.42;2.22;;;14.20;99.90;;;;;;5119008;28;20031;-77
2023/07/20 05:08:23;;;;;;;4.63;1.95;;;14.20;99.90;;;;;;5111254;28;20099;-77
2023/07/20 05:10:49;;;;;;;5.38;1.95;;;14.40;99.90;;;;;;5094449;28;20098;-79
2023/07/20 05:13:18;;;;;;;4.65;2.20;;;14.40;99.90;;;;;;5089513;28;20126;-76
2023/07/20 05:15:44;;;;;;;6.82;2.13;;;14.50;99.90;;;;;;5115849;28;20134;-78
2023/07/20 05:18:09;;;;;;;5.30;2.03;;;14.50;99.90;;;;;;5114161;28;20032;-78
2023/07/20 05:20:35;;;;;;;5.10;1.80;;;14.60;99.90;;;;;;5111893;28;20099;-79
2023/07/20 05:23:01;;;;;;;8.57;2.67;;;14.70;99.90;;;;;;5116499;28;20058;-79
2023/07/20 05:25:27;;;;;;;7.88;2.30;;;14.80;99.90;;;;;;5112528;28;20035;-78
2023/07/20 05:27:55;;;;;;;5.15;1.77;;;14.90;99.90;;;;;;5094747;28;20697;-78
2023/07/20 05:30:21;;;;;;;6.70;1.80;;;14.90;99.90;;;;;;5102009;28;21442;-77
2023/07/20 05:32:50;;;;;;;7.65;1.88;;;15.00;99.90;;;;;;5121893;28;20405;-77
2023/07/20 05:35:17;;;;;;;5.13;2.10;;;15.10;99.90;;;;;;5105876;28;20417;-78
2023/07/20 05:37:44;;;;;;;5.38;2.17;;;15.20;99.90;;;;;;5094990;28;20493;-77
2023/07/20 05:40:12;;;;;;;5.82;1.85;;;15.30;99.90;;;;;;5094232;28;20536;-78
2023/07/20 05:42:44;;;;;;;5.45;2.03;;;15.40;99.90;;;;;;5088983;28;20039;-79
2023/07/20 05:45:15;;;;;;;3.72;1.65;;;15.50;99.90;;;;;;5112026;28;20099;-77
2023/07/20 05:47:42;;;;;;;9.30;1.77;;;15.60;99.90;;;;;;5092676;28;20548;-77
2023/07/20 05:50:08;;;;;;;8.45;1.80;;;15.70;99.90;;;;;;5091844;28;20401;-79
2023/07/20 05:52:33;;;;;;;6.07;2.63;;;15.80;99.90;;;;;;5111972;28;20036;-79
2023/07/20 05:54:59;;;;;;;3.17;1.75;;;16.00;99.90;;;;;;5112691;28;20042;-79
2023/07/20 05:57:25;;;;;;;3.78;1.50;;;16.10;99.90;;;;;;5099995;28;20111;-80
2023/07/20 05:59:50;;;;;;;4.80;1.80;;;16.30;99.90;;;;;;5079098;28;20362;-79
2023/07/20 06:02:19;;;;;;;6.28;1.95;;;16.40;99.90;;;;;;5098333;28;20051;-78
2023/07/20 06:04:47;;;;;;;8.25;2.00;;;16.70;99.90;;;;;;5115781;28;20574;-80
2023/07/20 06:07:13;;;;;;;5.43;1.83;;;17.10;99.90;;;;;;5105613;28;20048;-80
2023/07/20 06:09:39;;;;;;;4.78;1.63;;;17.40;99.90;;;;;;5099041;28;20105;-80
2023/07/20 06:12:05;;;;;;;5.07;1.50;;;17.60;99.90;;;;;;5081318;28;20044;-80
2023/07/20 06:14:31;;;;;;;5.90;1.60;;;17.80;99.90;;;;;;5109370;28;20062;-78
2023/07/20 06:17:00;;;;;;;3.80;1.58;;;17.90;99.90;;;;;;5115955;28;20473;-78
2023/07/20 06:19:26;;;;;;;6.63;1.73;;;18.00;99.90;;;;;;5118901;28;20075;-79
2023/07/20 06:21:52;;;;;;;5.07;1.42;;;17.90;99.90;;;;;;5120258;28;20486;-81
2023/07/20 06:24:17;;;;;;;7.28;1.83;;;17.80;99.90;;;;;;5096646;28;20048;-78
2023/07/20 06:26:43;;;;;;;3.88;1.30;;;17.70;99.90;;;;;;5116647;28;20043;-79
2023/07/20 06:29:10;;;;;;;6.35;1.85;;;17.60;99.90;;;;;;5100477;28;20844;-78
2023/07/20 06:31:36;;;;;;;5.72;1.70;;;17.40;99.90;;;;;;5083763;28;20075;-79
2023/07/20 06:34:03;;;;;;;3.55;1.35;;;17.50;99.90;;;;;;5118235;28;20490;-79
2023/07/20 06:36:29;;;;;;;2.63;1.40;;;17.50;99.90;;;;;;5085220;28;20119;-80
2023/07/20 06:38:56;;;;;;;6.90;2.30;;;17.50;99.90;;;;;;5099150;28;20044;-79
2023/07/20 06:41:22;;;;;;;9.65;2.10;;;17.50;99.90;;;;;;5110356;28;20447;-78
2023/07/20 06:43:48;;;;;;;8.27;1.65;;;17.60;99.90;;;;;;5105371;28;20104;-79
2023/07/20 06:46:15;;;;;;;4.28;1.88;;;17.60;99.90;;;;;;5097538;28;20048;-79
2023/07/20 06:48:43;;;;;;;5.57;1.67;;;17.70;99.90;;;;;;5106782;28;20035;-80
2023/07/20 06:51:09;;;;;;;6.40;2.00;;;17.70;99.90;;;;;;5117840;28;20078;-80
2023/07/20 06:53:35;;;;;;;3.63;1.60;;;17.70;99.90;;;;;;5115657;28;20047;-78
2023/07/20 06:56:00;;;;;;;6.95;2.00;;;17.80;99.90;;;;;;5116160;28;20044;-77
2023/07/20 06:58:29;;;;;;;6.03;2.17;;;17.80;99.90;;;;;;5100065;28;20130;-78
2023/07/20 07:00:55;;;;;;;5.93;2.33;;;17.70;99.90;;;;;;5088215;28;20100;-77
2023/07/20 07:03:21;;;;;;;8.43;3.03;;;17.60;99.90;;;;;;5111991;28;20036;-78
2023/07/20 07:05:47;;;;;;;5.65;2.40;;;17.50;99.90;;;;;;5115421;28;20409;-77
2023/07/20 07:08:13;;;;;;;5.63;2.20;;;17.40;99.90;;;;;;5089810;28;20047;-78
2023/07/20 07:10:38;;;;;;;7.80;2.40;;;17.40;99.90;;;;;;5100179;28;20765;-78
2023/07/20 07:13:04;;;;;;;6.90;2.30;;;17.50;99.90;;;;;;5118271;28;20074;-77
2023/07/20 07:15:30;;;;;;;5.05;2.13;;;17.70;99.90;;;;;;5118622;28;20047;-78
2023/07/20 07:17:56;;;;;;;5.63;2.15;;;17.80;99.90;;;;;;5098447;28;20046;-76
2023/07/20 07:20:23;;;;;;;5.10;2.15;;;17.90;99.90;;;;;;5096609;28;20051;-78
2023/07/20 07:22:50;;;;;;;5.90;2.63;;;17.90;99.90;;;;;;5117611;28;20413;-77
2023/07/20 07:25:16;;;;;;;4.32;1.95;;;17.90;99.90;;;;;;5116771;28;20074;-78
2023/07/20 07:27:41;;;;;;;7.55;2.25;;;17.90;99.90;;;;;;5098534;28;20039;-77
2023/07/20 07:30:07;;;;;;;6.32;2.10;;;18.00;99.90;;;;;;5110214;28;20047;-78
2023/07/20 07:32:33;;;;;;;8.82;2.45;;;18.10;99.90;;;;;;5098120;28;20099;-79
2023/07/20 07:35:00;;;;;;;9.60;2.90;;;18.40;99.90;;;;;;5102111;28;20075;-78
2023/07/20 07:37:29;;;;;;;5.53;2.50;;;18.50;99.90;;;;;;5094295;28;20127;-80
2023/07/20 07:39:55;;;;;;;8.23;2.60;;;18.50;99.90;;;;;;5115188;28;20036;-77
2023/07/20 07:42:21;;;;;;;8.25;2.25;;;18.40;99.90;;;;;;5113885;28;20455;-75
2023/07/20 07:44:46;;;;;;;6.40;1.95;;;18.20;99.90;;;;;;5100047;28;20039;-76
2023/07/20 07:47:12;;;;;;;6.53;2.22;;;18.10;99.90;;;;;;5119469;28;20091;-78
2023/07/20 07:49:38;;;;;;;5.95;2.15;;;17.90;99.90;;;;;;5123292;28;20084;-77
2023/07/20 07:52:04;;;;;;;6.53;1.90;;;17.80;99.90;;;;;;5119196;28;20478;-77
2023/07/20 07:54:29;;;;;;;4.38;1.95;;;17.60;99.90;;;;;;5112222;28;20040;-79
2023/07/20 07:56:55;;;;;;;9.98;2.20;;;17.70;99.90;;;;;;5107285;28;20067;-79
2023/07/20 07:59:21;;;;;;;4.93;1.90;;;17.90;99.90;;;;;;5097410;28;20036;-78
2023/07/20 08:01:47;;;;;;;7.43;1.92;;;18.20;99.90;;;;;;5096454;28;20057;-77
2023/07/20 08:04:13;;;;;;;5.85;1.92;;;18.30;99.90;;;;;;5111975;28;20036;-78
2023/07/20 08:06:39;;;;;;;3.15;1.50;;;18.40;97.90;;;;;;5110894;28;20035;-75
2023/07/20 08:09:04;;;;;;;4.68;1.67;;;18.30;97.80;;;;;;5110435;28;20054;-77
2023/07/20 08:11:33;;;;;;;3.55;1.60;;;18.20;98.80;;;;;;5110237;28;20040;-79
2023/07/20 08:14:00;;;;;;;7.93;2.10;;;18.40;99.40;;;;;;5103337;28;20055;-80
2023/07/20 08:16:26;;;;;;;6.68;1.80;;;18.50;99.90;;;;;;5110519;28;20047;-78
2023/07/20 08:18:52;;;;;;;8.25;2.03;;;18.70;99.70;;;;;;5112274;28;20043;-78
2023/07/20 08:21:17;;;;;;;6.13;2.10;;;18.80;99.20;;;;;;5117880;28;20040;-79
2023/07/20 08:23:43;;;;;;;12.95;2.13;;;18.60;97.90;;;;;;5106239;28;20091;-81
2023/07/20 08:26:09;;;;;;;3.60;1.65;;;18.50;98.50;;;;;;5114019;28;20547;-77
2023/07/20 08:28:35;;;;;;;3.35;1.55;;;18.20;98.50;;;;;;5117459;28;20044;-77
2023/07/20 08:31:00;;;;;;;6.45;1.65;;;18.30;98.80;;;;;;5120657;28;20034;-77
2023/07/20 08:33:29;;;;;;;5.80;1.35;;;18.20;97.70;;;;;;5120838;28;20032;-79
2023/07/20 08:35:56;;;;;;;3.53;1.45;;;18.20;98.30;;;;;;5082624;28;20055;-79
2023/07/20 08:38:21;;;;;;;4.25;1.25;;;18.40;97.20;;;;;;5095261;28;20074;-78
2023/07/20 08:40:47;;;;;;;4.70;1.23;;;18.60;97.50;;;;;;5121443;28;20081;-78
2023/07/20 08:43:16;;;;;;;3.90;1.40;;;18.80;97.70;;;;;;5121643;28;20036;-79
2023/07/20 08:45:44;;;;;;;7.25;1.75;;;19.00;97.70;;;;;;5122047;28;20035;-79
2023/07/20 08:48:11;;;;;;;;;;;19.00;97.70;;;;;;5120504;28;20046;-78
2023/07/20 08:50:37;;;;;;;5.90;1.02;;;18.90;97.10;;;;;;5070031;28;19951;-81
2023/07/20 08:53:03;;;;;;;5.78;1.35;;;18.80;96.30;;;;;;5100995;28;20549;-80
2023/07/20 08:55:30;;;;;;;7.38;1.42;;;18.70;96.90;;;;;;5117494;28;20071;-77
2023/07/20 08:57:57;;;;;;;3.67;1.35;;;18.80;96.70;;;;;;5096670;28;20078;-77
2023/07/20 09:00:25;;;;;;;3.50;1.20;;;18.90;96.90;;;;;;5099884;28;20130;-78
2023/07/20 09:02:54;;;;;;;4.72;1.50;;;19.10;96.50;;;;;;5119297;28;20044;-78
2023/07/20 09:05:22;;;;;;;9.02;1.40;;;19.10;96.90;;;;;;5099563;28;20039;-79
2023/07/20 09:07:48;;;;;;;3.28;1.13;;;19.20;96.50;;;;;;5118543;28;20494;-77
2023/07/20 09:10:14;;;;;;;3.35;1.23;;;19.40;96.80;;;;;;5114356;28;20075;-78
2023/07/20 09:12:42;;;;;;;3.80;1.20;;;19.60;95.10;;;;;;5098597;28;20085;-79
2023/07/20 09:15:09;;;;;;;3.05;1.15;;;19.80;95.50;;;;;;5107057;28;20477;-75
2023/07/20 09:17:35;;;;;;;3.05;1.38;;;19.80;95.20;;;;;;5120639;28;20018;-77
2023/07/20 09:20:07;;;;;;;6.88;1.52;;;19.80;95.50;;;;;;5117929;28;20043;-77
2023/07/20 09:22:34;;;;;;;4.80;1.45;;;20.00;94.70;;;;;;5121647;28;20044;-78
2023/07/20 09:24:59;;;;;;;3.70;1.40;;;20.10;94.30;;;;;;5106657;28;20070;-79
2023/07/20 09:28:02;;;;;;;3.75;1.70;;;20.20;94.20;;;;;;5117231;28;20461;-78
2023/07/20 09:30:28;;;;;;;8.27;1.80;;;20.40;95.50;;;;;;4998993;28;20056;-76
2023/07/20 09:32:54;;;;;;;2.80;1.02;;;20.50;94.50;;;;;;5092271;28;20451;-76
2023/07/20 09:35:21;;;;;;;5.97;1.75;;;20.40;94.10;;;;;;5098725;28;20048;-77
2023/07/20 09:37:51;;;;;;;3.72;1.45;;;20.10;94.20;;;;;;5077496;28;20075;-78
2023/07/20 09:40:18;;;;;;;3.25;0.98;;;19.80;94.00;;;;;;5106606;28;20052;-78
2023/07/20 09:42:44;;;;;;;4.18;1.20;;;19.60;94.30;;;;;;5108883;28;20060;-79
2023/07/20 09:45:10;;;;;;;4.38;1.08;;;19.70;94.60;;;;;;5118851;28;20044;-78
2023/07/20 09:47:42;;;;;;;6.20;1.90;;;19.90;93.90;;;;;;5101674;28;20040;-80
2023/07/20 09:50:10;;;;;;;4.95;1.30;;;20.10;94.30;;;;;;5108907;28;20039;-78
2023/07/20 09:52:46;;;;;;;3.50;1.27;;;20.40;94.30;;;;;;5098932;28;20112;-77
2023/07/20 09:55:13;;;;;;;10.73;1.48;;;20.90;93.90;;;;;;5117950;28;20047;-77
2023/07/20 09:57:38;;;;;;;3.47;1.05;;;20.30;92.60;;;;;;5100795;28;20124;-79
2023/07/20 10:00:13;;;;;;;4.65;1.42;;;20.10;92.90;;;;;;5113217;28;20467;-77
2023/07/20 10:02:44;;;;;;;5.00;1.38;;;19.90;93.40;;;;;;5121147;28;20043;-77
2023/07/20 10:05:12;;;;;;;3.83;1.20;;;19.50;93.90;;;;;;5119013;28;20470;-78
2023/07/20 10:07:45;;;;;;;3.85;1.30;;;19.40;94.10;;;;;;5107114;28;20063;-77
2023/07/20 10:10:13;;;;;;;20.58;1.90;;;19.50;93.90;;;;;;5124253;28;20039;-79
2023/07/20 10:12:41;;;;;;;3.28;1.33;;;19.80;94.40;;;;;;5120107;28;20092;-78
2023/07/20 10:15:11;;;;;;;;;;;20.20;94.70;;;;;;5104194;28;20546;-79
2023/07/20 10:17:49;;;;;;;4.68;1.40;;;20.50;93.90;;;;;;5095051;28;20033;-78
2023/07/20 10:20:19;;;;;;;6.90;1.50;;;20.80;93.10;;;;;;5119606;28;20046;-78
2023/07/20 10:22:48;;;;;;;3.35;1.10;;;20.80;92.50;;;;;;5120596;28;20297;-79
2023/07/20 10:25:14;;;;;;;3.47;1.50;;;20.50;92.10;;;;;;5120819;28;20096;-77
2023/07/20 10:27:40;;;;;;;6.45;1.20;;;20.20;92.60;;;;;;5091020;28;20055;-79
2023/07/20 10:30:07;;;;;;;5.05;1.25;;;20.10;93.00;;;;;;5116928;28;20039;-79
2023/07/20 10:32:33;;;;;;;5.43;1.38;;;20.30;92.80;;;;;;5120505;28;20036;-79
2023/07/20 10:34:59;;;;;;;4.93;1.30;;;20.40;92.80;;;;;;5118211;28;20173;-81
2023/07/20 10:37:47;;;;;;;3.47;1.50;;;20.30;92.00;;;;;;5115114;28;20063;-80
2023/07/20 10:40:38;;;;;;;3.72;1.48;;;20.10;92.50;;;;;;5102237;28;20079;-78
2023/07/20 10:43:07;;;;;;;3.92;1.58;;;20.10;92.50;;;;;;5101449;28;20036;-80
2023/07/20 10:45:40;;;;;;;2.70;1.30;;;20.30;92.50;;;;;;5119233;28;20043;-79
2023/07/20 10:48:14;;;;;;;3.55;1.42;;;20.50;91.40;;;;;;5095207;28;20040;-76
2023/07/20 10:50:40;;;;;;;3.10;1.30;;;20.70;91.50;;;;;;5111351;28;20031;-78
2023/07/20 10:53:17;;;;;;;5.53;1.40;;;21.00;91.80;;;;;;5088412;28;20126;-78
2023/07/20 10:55:43;;;;;;;4.47;1.30;;;21.00;91.10;;;;;;5098802;28;20040;-79
2023/07/20 10:58:14;;;;;;;2.95;1.30;;;20.70;91.20;;;;;;5124038;28;20036;-78
2023/07/20 11:01:03;;;;;;;2.85;1.20;;;20.40;91.80;;;;;;5114334;28;20055;-77
2023/07/20 11:03:34;;;;;;;3.10;1.35;;;20.10;92.00;;;;;;5084032;28;20088;-80
2023/07/20 11:06:19;;;;;;;6.07;1.20;;;20.30;92.50;;;;;;5107558;28;20052;-78
2023/07/20 11:08:45;;;;;;;3.83;1.50;;;20.50;91.20;;;;;;5112572;28;20824;-78
2023/07/20 11:11:24;;;;;;;3.90;1.33;;;20.80;90.80;;;;;;5092543;28;20145;-78
2023/07/20 11:13:57;;;;;;;4.45;1.40;;;21.00;91.30;;;;;;5086499;28;20091;-80
2023/07/20 11:16:43;;;;;;;3.15;1.30;;;21.30;90.60;;;;;;5098312;28;20051;-78
2023/07/20 11:19:20;;;;;;;1.63;1.05;;;21.60;91.10;;;;;;5096865;28;20315;-79
2023/07/20 11:21:53;;;;;;;3.03;1.30;;;22.00;90.80;;;;;;5089034;28;20043;-77
2023/07/20 11:24:19;;;;;;;3.50;1.15;;;22.00;87.90;;;;;;5094494;28;20554;-78
2023/07/20 11:26:46;;;;;;;4.85;1.17;;;22.00;88.00;;;;;;5093949;28;20122;-79
2023/07/20 11:29:13;;;;;;;3.85;1.40;;;22.00;89.80;;;;;;5084367;28;20046;-78
2023/07/20 11:31:40;;;;;;;9.82;1.77;;;22.00;88.90;;;;;;5091046;28;20075;-79
2023/07/20 11:34:07;;;;;;;7.20;1.67;;;22.10;89.20;;;;;;5117688;28;20036;-78
2023/07/20 11:36:33;;;;;;;4.07;1.10;;;22.40;89.90;;;;;;5115453;28;20036;-80
2023/07/20 11:39:00;;;;;;;3.97;1.42;;;22.60;89.30;;;;;;5065142;28;20178;-77
2023/07/20 11:41:26;;;;;;;2.95;1.17;;;22.60;86.80;;;;;;5112582;28;20059;-78
2023/07/20 11:43:56;;;;;;;3.75;1.50;;;22.20;87.30;;;;;;5095850;28;20040;-81
2023/07/20 11:46:22;;;;;;;3.40;1.30;;;21.90;86.80;;;;;;5083024;28;20040;-79
2023/07/20 11:48:48;;;;;;;2.50;1.13;;;21.80;88.40;;;;;;5103634;28;20050;-80
2023/07/20 11:51:17;;;;;;;3.15;1.17;;;21.90;88.80;;;;;;5117820;28;20035;-79
2023/07/20 11:53:46;;;;;;;3.65;1.17;;;21.80;88.30;;;;;;5116187;28;20048;-77
2023/07/20 11:56:11;;;;;;;3.95;1.38;;;21.50;88.30;;;;;;5095633;28;20516;-77
2023/07/20 11:58:44;;;;;;;2.92;1.10;;;21.40;88.40;;;;;;5109989;28;20043;-76
2023/07/20 12:01:12;;;;;;;3.13;1.33;;;21.40;89.40;;;;;;5098453;28;20054;-78
2023/07/20 12:03:38;;;;;;;5.25;1.50;;;21.30;89.40;;;;;;5107677;28;20096;-77
2023/07/20 12:06:10;;;;;;;4.28;1.20;;;21.30;88.40;;;;;;5094557;28;20519;-79
2023/07/20 12:08:40;;;;;;;2.67;1.10;;;21.40;89.10;;;;;;5119265;28;20505;-79
2023/07/20 12:11:07;;;;;;;4.45;1.20;;;21.60;89.50;;;;;;5122479;28;20035;-77
2023/07/20 12:13:42;;;;;;;6.15;1.58;;;21.90;88.30;;;;;;5100413;28;20043;-78
2023/07/20 12:16:15;;;;;;;3.38;1.40;;;21.70;89.10;;;;;;5090820;28;20044;-77
2023/07/20 12:18:44;;;;;;;2.75;1.10;;;21.50;89.60;;;;;;5096144;28;20120;-77
2023/07/20 12:21:11;;;;;;;4.05;1.48;;;21.30;90.00;;;;;;5117158;28;20056;-76
2023/07/20 12:23:40;;;;;;;2.80;1.00;;;21.20;89.20;;;;;;5106429;28;20062;-77
2023/07/20 12:26:09;;;;;;;3.53;1.00;;;21.00;89.50;;;;;;5118621;28;20036;-76
2023/07/20 12:28:40;;;;;;;3.05;1.20;;;20.80;90.00;;;;;;5099443;28;20108;-76
2023/07/20 12:31:07;;;;;;;3.33;1.10;;;20.70;89.70;;;;;;5103734;28;20055;-76
2023/07/20 12:33:33;;;;;;;2.20;1.10;;;20.60;90.70;;;;;;5104162;28;20115;-75
2023/07/20 12:36:01;;;;;;;5.13;1.20;;;20.60;90.30;;;;;;5100863;28;20457;-75
2023/07/20 12:38:31;;;;;;;4.75;1.30;;;20.70;89.50;;;;;;5116678;28;20087;-77
2023/07/20 12:40:58;;;;;;;2.67;1.20;;;20.60;89.90;;;;;;5096129;28;20067;-77
2023/07/20 12:43:24;;;;;;;4.20;1.25;;;20.50;90.40;;;;;;5113116;28;20112;-78
2023/07/20 12:45:50;;;;;;;2.85;1.40;;;20.40;90.60;;;;;;5097657;28;20054;-78
2023/07/20 12:48:18;;;;;;;3.65;1.30;;;20.30;90.70;;;;;;5114167;28;20040;-79
2023/07/20 12:50:43;;;;;;;4.10;1.30;;;20.20;91.00;;;;;;5099827;28;20040;-76